createdAt,value
2018-04-30T00:02:24.844Z,100226.73
2018-04-30T00:05:28.197Z,100232.10
2018-04-30T00:08:32.171Z,100227.50
2018-04-30T00:11:35.509Z,100226.02
2018-04-30T00:14:38.890Z,100225.09
2018-04-30T00:17:42.245Z,100218.47
2018-04-30T00:20:45.629Z,100230.35
2018-04-30T00:23:49.001Z,100232.99
2018-04-30T00:26:52.359Z,100228.21
2018-04-30T00:29:55.780Z,100225.73
2018-04-30T00:32:58.997Z,100241.49
2018-04-30T00:36:03.224Z,100234.55
2018-04-30T00:39:06.660Z,100239.60
2018-04-30T00:42:10.023Z,100246.90
2018-04-30T00:45:13.291Z,100251.59
2018-04-30T00:48:16.624Z,100256.31
2018-04-30T00:51:19.805Z,100256.84
2018-04-30T00:54:32.315Z,100265.10
2018-04-30T00:57:35.755Z,100286.09
2018-04-30T01:00:39.443Z,100285.96
2018-04-30T01:03:42.982Z,100281.66
2018-04-30T01:06:46.337Z,100273.44
2018-04-30T01:09:49.635Z,100277.03
2018-04-30T01:12:52.949Z,100261.29
2018-04-30T01:15:56.357Z,100266.92
2018-04-30T01:18:59.730Z,100257.92
2018-04-30T01:22:03.856Z,100281.34
2018-04-30T01:25:07.248Z,100275.94
2018-04-30T01:28:10.552Z,100271.50
2018-04-30T01:31:13.831Z,100285.19
2018-04-30T01:34:17.257Z,100287.59
2018-04-30T01:37:20.483Z,100294.82
2018-04-30T01:40:23.756Z,100298.78
2018-04-30T01:43:27.135Z,100292.67
2018-04-30T01:46:30.467Z,100305.43
2018-04-30T01:49:34.436Z,100324.03
2018-04-30T01:52:37.743Z,100321.26
2018-04-30T01:55:41.030Z,100329.85
2018-04-30T01:58:44.440Z,100338.34
2018-04-30T02:01:47.835Z,100345.22
2018-04-30T02:04:51.136Z,100347.46
2018-04-30T02:07:54.412Z,100357.37
2018-04-30T02:10:57.727Z,100363.69
2018-04-30T02:14:01.015Z,100360.31
2018-04-30T02:17:04.432Z,100363.13
2018-04-30T02:20:07.893Z,100375.02
2018-04-30T02:23:11.161Z,100382.28
2018-04-30T02:26:14.427Z,100389.55
2018-04-30T02:29:17.820Z,100393.03
2018-04-30T02:32:21.111Z,100398.12
2018-04-30T02:35:24.361Z,100388.82
2018-04-30T02:38:27.704Z,100386.73
2018-04-30T02:41:31.043Z,100395.69
2018-04-30T02:44:34.451Z,100404.76
2018-04-30T02:47:37.813Z,100408.42
2018-04-30T02:50:41.384Z,100416.22
2018-04-30T02:53:45.658Z,100442.62
2018-04-30T02:56:49.039Z,100442.16
2018-04-30T02:59:52.441Z,100443.08
2018-04-30T03:02:55.745Z,100435.02
2018-04-30T03:05:58.959Z,100434.28
2018-04-30T03:09:03.061Z,100433.76
2018-04-30T03:12:06.374Z,100440.91
2018-04-30T03:15:09.644Z,100452.05
2018-04-30T03:18:13.058Z,100452.97
2018-04-30T03:21:16.337Z,100456.73
2018-04-30T03:24:19.664Z,100461.91
2018-04-30T03:27:23.093Z,100476.70
2018-04-30T03:30:26.332Z,100477.32
2018-04-30T03:33:29.618Z,100468.15
2018-04-30T03:36:33.943Z,100468.33
2018-04-30T03:39:37.256Z,100475.39
2018-04-30T03:42:40.522Z,100482.83
2018-04-30T03:45:43.833Z,100487.84
2018-04-30T03:48:47.124Z,100486.06
2018-04-30T03:51:50.321Z,100492.40
2018-04-30T03:54:53.808Z,100504.33
2018-04-30T03:57:57.123Z,100513.74
2018-04-30T04:02:14.765Z,100524.09
2018-04-30T04:06:30.912Z,100531.03
2018-04-30T04:09:35.362Z,100532.59
2018-04-30T04:12:38.799Z,100531.18
2018-04-30T04:15:42.077Z,100529.48
2018-04-30T04:18:45.472Z,100532.38
2018-04-30T04:21:48.793Z,100536.31
2018-04-30T04:24:52.123Z,100545.32
2018-04-30T04:27:55.392Z,100540.97
2018-04-30T04:30:58.746Z,100547.01
2018-04-30T04:34:02.576Z,100555.78
2018-04-30T04:37:05.837Z,100562.97
2018-04-30T04:40:09.173Z,100566.65
2018-04-30T04:43:12.552Z,100573.16
2018-04-30T04:46:15.800Z,100579.68
2018-04-30T04:49:19.201Z,100579.75
2018-04-30T04:52:22.612Z,100579.78
2018-04-30T04:55:25.984Z,100575.74
2018-04-30T04:58:29.285Z,100588.36
2018-04-30T05:01:33.174Z,100586.15
2018-04-30T05:04:36.540Z,100582.89
2018-04-30T05:07:39.716Z,100576.96
2018-04-30T05:10:43.231Z,100577.47
2018-04-30T05:13:46.591Z,100588.03
2018-04-30T05:16:49.940Z,100577.72
2018-04-30T05:19:53.335Z,100578.12
2018-04-30T05:22:56.839Z,100591.06
2018-04-30T05:26:00.048Z,100597.02
2018-04-30T05:29:03.912Z,100609.50
2018-04-30T05:32:07.107Z,100616.98
2018-04-30T05:35:10.481Z,100613.62
2018-04-30T05:38:13.992Z,100630.99
2018-04-30T05:41:17.249Z,100631.21
2018-04-30T05:44:20.583Z,100633.23
2018-04-30T05:47:23.907Z,100627.76
2018-04-30T05:50:27.063Z,100627.34
2018-04-30T05:53:31.798Z,100620.39
2018-04-30T05:56:35.116Z,100627.27
2018-04-30T05:59:38.339Z,100641.61
2018-04-30T06:02:41.611Z,100634.32
2018-04-30T06:05:44.979Z,100638.16
2018-04-30T06:08:48.248Z,100643.88
2018-04-30T06:11:51.627Z,100652.60
2018-04-30T06:14:55.025Z,100658.05
2018-04-30T06:17:58.297Z,100664.65
2018-04-30T06:21:01.642Z,100653.83
2018-04-30T06:24:05.102Z,100651.66
2018-04-30T06:27:08.340Z,100642.42
2018-04-30T06:30:11.591Z,100639.83
2018-04-30T06:33:15.356Z,100644.30
2018-04-30T06:36:18.716Z,100642.93
2018-04-30T06:39:21.858Z,100627.85
2018-04-30T06:42:25.215Z,100629.43
2018-04-30T06:45:28.512Z,100626.40
2018-04-30T06:48:31.740Z,100625.62
2018-04-30T06:51:35.796Z,100625.94
2018-04-30T06:54:39.092Z,100626.53
2018-04-30T06:57:42.393Z,100634.59
2018-04-30T07:00:45.809Z,100634.75
2018-04-30T07:03:49.120Z,100641.57
2018-04-30T07:06:52.641Z,100639.07
2018-04-30T07:09:56.019Z,100653.30
2018-04-30T07:12:59.324Z,100640.22
2018-04-30T07:16:02.591Z,100649.75
2018-04-30T07:19:07.303Z,100656.34
2018-04-30T07:22:10.626Z,100659.43
2018-04-30T07:25:13.912Z,100658.46
2018-04-30T07:28:17.318Z,100658.85
2018-04-30T07:31:20.765Z,100665.37
2018-04-30T07:34:24.100Z,100654.47
2018-04-30T07:37:27.520Z,100638.65
2018-04-30T07:40:30.910Z,100640.69
2018-04-30T07:43:34.660Z,100646.58
2018-04-30T07:46:38.016Z,100651.39
2018-04-30T07:49:41.408Z,100647.36
2018-04-30T07:52:44.703Z,100640.48
2018-04-30T07:55:47.993Z,100657.06
2018-04-30T07:58:51.302Z,100646.94
2018-04-30T08:01:54.608Z,100656.10
2018-04-30T08:04:57.856Z,100657.44
2018-04-30T08:08:01.207Z,100661.30
2018-04-30T08:11:05.316Z,100654.48
2018-04-30T08:14:08.602Z,100657.00
2018-04-30T08:17:11.905Z,100658.75
2018-04-30T08:20:15.137Z,100652.53
2018-04-30T08:23:18.376Z,100650.85
2018-04-30T08:26:21.677Z,100641.41
2018-04-30T08:29:25.256Z,100631.42
2018-04-30T08:32:28.591Z,100628.98
2018-04-30T08:35:31.987Z,100631.90
2018-04-30T08:38:36.673Z,100641.69
2018-04-30T08:41:39.939Z,100628.52
2018-04-30T08:44:43.716Z,100628.79
2018-04-30T08:47:48.153Z,100628.50
2018-04-30T08:50:52.079Z,100631.60
2018-04-30T08:53:55.400Z,100640.09
2018-04-30T08:56:58.869Z,100643.80
2018-04-30T09:00:02.314Z,100647.63
2018-04-30T09:03:07.065Z,100642.30
2018-04-30T09:06:10.404Z,100636.24
2018-04-30T09:09:13.840Z,100637.99
2018-04-30T09:12:17.200Z,100648.01
2018-04-30T09:15:20.398Z,100650.26
2018-04-30T09:16:33.260Z,99434.30
2018-04-30T09:18:24.487Z,100653.45
2018-04-30T09:18:37.779Z,99438.17
2018-04-30T09:21:27.844Z,100653.28
2018-04-30T09:21:35.197Z,99435.59
2018-04-30T09:23:32.191Z,99423.52
2018-04-30T09:24:31.146Z,100651.08
2018-04-30T09:24:32.337Z,99434.32
2018-04-30T09:25:32.420Z,99433.36
2018-04-30T09:26:32.362Z,99433.55
2018-04-30T09:27:32.304Z,99438.94
2018-04-30T09:27:34.270Z,100647.55
2018-04-30T09:28:32.341Z,99436.65
2018-04-30T09:29:32.301Z,99442.86
2018-04-30T09:30:37.567Z,100643.83
2018-04-30T09:32:07.962Z,99433.03
2018-04-30T09:33:02.565Z,99430.73
2018-04-30T09:33:42.038Z,100647.12
2018-04-30T09:34:02.279Z,99433.17
2018-04-30T09:35:03.383Z,99437.14
2018-04-30T09:36:02.606Z,99429.77
2018-04-30T09:36:47.267Z,100651.71
2018-04-30T09:37:02.683Z,99442.66
2018-04-30T09:37:51.534Z,99443.50
2018-04-30T09:38:51.388Z,99441.68
2018-04-30T09:39:50.528Z,100651.30
2018-04-30T09:39:51.644Z,99438.56
2018-04-30T09:40:51.607Z,99436.67
2018-04-30T09:41:51.694Z,99437.06
2018-04-30T09:42:51.458Z,99437.13
2018-04-30T09:42:54.067Z,100641.61
2018-04-30T09:45:58.370Z,100635.72
2018-04-30T09:46:44.136Z,99429.48
2018-04-30T09:47:44.164Z,99426.41
2018-04-30T09:49:01.558Z,100640.20
2018-04-30T09:52:04.815Z,100638.80
2018-04-30T09:55:08.100Z,100642.93
2018-04-30T09:58:11.476Z,100633.85
2018-04-30T10:01:15.051Z,100639.08
2018-04-30T10:04:18.312Z,100632.63
2018-04-30T10:07:22.315Z,100641.72
2018-04-30T10:10:25.540Z,100645.27
2018-04-30T10:13:28.687Z,100639.07
2018-04-30T10:16:32.467Z,100635.66
2018-04-30T10:19:35.784Z,100631.70
2018-04-30T10:22:39.188Z,100632.10
2018-04-30T10:25:43.132Z,100632.09
2018-04-30T10:28:46.409Z,100635.87
2018-04-30T10:31:49.634Z,100628.42
2018-04-30T10:34:52.850Z,100618.40
2018-04-30T10:37:56.241Z,100632.06
2018-04-30T10:40:59.517Z,100620.42
2018-04-30T10:44:02.999Z,100619.16
2018-04-30T10:47:06.456Z,100614.65
2018-04-30T10:50:09.793Z,100604.21
2018-04-30T10:53:13.132Z,100606.94
2018-04-30T10:56:16.292Z,100607.71
2018-04-30T10:59:19.507Z,100612.88
2018-04-30T11:02:22.970Z,100612.49
2018-04-30T11:05:26.302Z,100616.15
2018-04-30T11:08:29.756Z,100621.87
2018-04-30T11:11:33.084Z,100620.36
2018-04-30T11:14:36.386Z,100628.85
2018-04-30T11:17:39.777Z,100636.83
2018-04-30T11:20:42.909Z,100636.01
2018-04-30T11:23:46.188Z,100645.45
2018-04-30T11:26:50.917Z,100660.72
2018-04-30T11:29:54.189Z,100655.31
2018-04-30T11:32:57.495Z,100654.27
2018-04-30T11:36:00.733Z,100657.98
2018-04-30T11:39:04.748Z,100651.50
2018-04-30T11:42:08.031Z,100648.24
2018-04-30T11:45:11.379Z,100646.45
2018-04-30T11:48:14.691Z,100640.69
2018-04-30T11:51:17.875Z,100648.57
2018-04-30T11:54:22.386Z,100639.10
2018-04-30T11:57:25.711Z,100648.46
2018-04-30T12:00:28.963Z,100655.90
2018-04-30T12:03:32.256Z,100649.76
2018-04-30T12:06:35.604Z,100660.09
2018-04-30T12:09:38.997Z,100671.82
2018-04-30T12:12:42.231Z,100679.47
2018-04-30T12:15:45.525Z,100676.43
2018-04-30T12:18:48.782Z,100678.56
2018-04-30T12:21:52.941Z,100671.94
2018-04-30T12:24:56.268Z,100677.99
2018-04-30T12:27:59.733Z,100683.37
2018-04-30T12:31:02.983Z,100674.68
2018-04-30T12:34:06.619Z,100690.23
2018-04-30T12:37:10.685Z,100692.38
2018-04-30T12:40:14.207Z,100683.37
2018-04-30T12:43:18.633Z,100667.72
2018-04-30T12:46:22.017Z,100673.19
2018-04-30T12:49:25.410Z,100665.63
2018-04-30T12:52:28.664Z,100672.13
2018-04-30T12:55:32.048Z,100669.16
2018-04-30T12:58:35.373Z,100665.43
2018-04-30T13:01:38.825Z,100669.75
2018-04-30T13:04:42.235Z,100665.63
2018-04-30T13:07:45.754Z,100675.47
2018-04-30T13:10:48.948Z,100669.70
2018-04-30T13:13:52.334Z,100662.39
2018-04-30T13:16:55.650Z,100657.18
2018-04-30T13:19:58.856Z,100664.97
2018-04-30T13:23:02.109Z,100667.92
2018-04-30T13:26:05.405Z,100661.34
2018-04-30T13:29:08.831Z,100666.71
2018-04-30T13:32:12.120Z,100666.94
2018-04-30T13:35:16.360Z,100674.01
2018-04-30T13:38:19.731Z,100656.19
2018-04-30T13:41:22.996Z,100655.48
2018-04-30T13:44:26.307Z,100652.07
2018-04-30T13:47:29.472Z,100665.91
2018-04-30T13:50:32.819Z,100670.99
2018-04-30T13:53:36.140Z,100664.29
2018-04-30T13:56:39.431Z,100659.79
2018-04-30T13:59:43.522Z,100650.69
2018-04-30T14:02:47.165Z,100650.87
2018-04-30T14:05:50.725Z,100652.84
2018-04-30T14:08:54.040Z,100666.93
2018-04-30T14:11:57.448Z,100662.78
2018-04-30T14:15:00.823Z,100676.11
2018-04-30T14:18:04.159Z,100672.66
2018-04-30T14:21:07.350Z,100689.33
2018-04-30T14:24:12.705Z,100690.97
2018-04-30T14:27:16.119Z,100694.89
2018-04-30T14:30:19.393Z,100703.78
2018-04-30T14:33:22.769Z,100706.90
2018-04-30T14:36:26.107Z,100702.02
2018-04-30T14:39:29.426Z,100706.60
2018-04-30T14:42:32.591Z,100692.13
2018-04-30T14:45:35.905Z,100698.35
2018-04-30T14:48:39.132Z,100706.82
2018-04-30T14:51:42.475Z,100697.75
2018-04-30T14:54:45.868Z,100694.43
2018-04-30T14:57:49.080Z,100691.62
2018-04-30T15:00:52.517Z,100680.27
2018-04-30T15:03:55.861Z,100672.61
2018-04-30T15:06:59.292Z,100676.21
2018-04-30T15:10:03.481Z,100666.83
2018-04-30T15:13:06.727Z,100659.33
2018-04-30T15:16:10.603Z,100665.25
2018-04-30T15:19:14.286Z,100658.43
2018-04-30T15:22:17.793Z,100659.40
2018-04-30T15:25:21.716Z,100667.09
2018-04-30T15:28:25.270Z,100675.72
2018-04-30T15:31:29.311Z,100665.35
2018-04-30T15:34:33.585Z,100664.21
2018-04-30T15:37:38.324Z,100663.86
2018-04-30T15:40:41.816Z,100672.56
2018-04-30T15:43:45.365Z,100683.19
2018-04-30T15:46:48.744Z,100680.48
2018-04-30T15:49:52.327Z,100694.45
2018-04-30T15:52:55.696Z,100712.83
2018-04-30T15:55:59.553Z,100732.08
2018-04-30T15:59:02.891Z,100743.30
2018-04-30T16:02:06.292Z,100761.49
2018-04-30T16:05:09.532Z,100765.07
2018-04-30T16:08:12.792Z,100778.32
2018-04-30T16:11:16.201Z,100788.58
2018-04-30T16:14:20.120Z,100760.23
2018-04-30T16:17:23.591Z,100747.33
2018-04-30T16:20:27.202Z,100750.29
2018-04-30T16:23:32.048Z,100762.49
2018-04-30T16:26:37.670Z,100766.24
2018-04-30T16:29:41.591Z,100779.49
2018-04-30T16:32:45.186Z,100771.70
2018-04-30T16:35:48.798Z,100762.28
2018-04-30T16:38:52.268Z,100759.10
2018-04-30T16:41:56.183Z,100763.38
2018-04-30T16:45:00.842Z,100761.62
2018-04-30T16:48:04.376Z,100766.65
2018-04-30T16:51:07.846Z,100770.78
2018-04-30T16:54:11.796Z,100777.49
2018-04-30T16:57:15.356Z,100785.05
2018-04-30T17:00:18.700Z,100787.25
2018-04-30T17:03:22.160Z,100802.79
2018-04-30T17:06:25.600Z,100797.62
2018-04-30T17:09:29.103Z,100795.18
2018-04-30T17:12:32.282Z,100801.87
2018-04-30T17:15:35.658Z,100797.68
2018-04-30T17:18:39.053Z,100808.71
2018-04-30T17:21:42.388Z,100810.41
2018-04-30T17:24:46.500Z,100812.68
2018-04-30T17:27:49.834Z,100810.85
2018-04-30T17:30:53.165Z,100809.11
2018-04-30T17:33:56.503Z,100809.20
2018-04-30T17:36:59.832Z,100817.55
2018-04-30T17:40:03.231Z,100826.11
2018-04-30T17:43:06.418Z,100830.68
2018-04-30T17:46:10.829Z,100828.56
2018-04-30T17:49:15.511Z,100834.88
2018-04-30T17:52:18.814Z,100839.08
2018-04-30T17:55:22.155Z,100851.04
2018-04-30T17:58:25.371Z,100857.06
2018-04-30T18:01:28.751Z,100867.52
2018-04-30T18:04:32.019Z,100872.05
2018-04-30T18:07:35.334Z,100877.39
2018-04-30T18:10:38.749Z,100874.28
2018-04-30T18:13:43.672Z,100876.96
2018-04-30T18:16:47.770Z,100885.49
2018-04-30T18:19:51.053Z,100887.71
2018-04-30T18:22:59.771Z,100894.66
2018-04-30T18:26:03.120Z,100891.50
2018-04-30T18:29:06.478Z,100892.70
2018-04-30T18:32:09.728Z,100886.69
2018-04-30T18:35:13.075Z,100891.63
2018-04-30T18:38:17.013Z,100886.03
2018-04-30T18:41:20.363Z,100890.96
2018-04-30T18:44:23.766Z,100898.80
2018-04-30T18:47:27.092Z,100899.13
2018-04-30T18:50:30.408Z,100905.35
2018-04-30T18:53:34.631Z,100912.57
2018-04-30T18:56:37.923Z,100923.01
2018-04-30T18:59:41.324Z,100932.01
2018-04-30T19:02:44.591Z,100932.97
2018-04-30T19:05:47.904Z,100945.64
2018-04-30T19:08:51.196Z,100949.77
2018-04-30T19:11:54.550Z,100943.55
2018-04-30T19:14:58.646Z,100938.92
2018-04-30T19:18:02.036Z,100932.42
2018-04-30T19:21:05.311Z,100946.89
2018-04-30T19:24:08.698Z,100955.32
2018-04-30T19:27:12.120Z,100949.17
2018-04-30T19:30:15.324Z,100951.85
2018-04-30T19:33:18.672Z,100948.57
2018-04-30T19:36:21.988Z,100947.89
2018-04-30T19:39:25.442Z,100955.45
2018-04-30T19:42:28.814Z,100968.00
2018-04-30T19:45:32.575Z,100963.72
2018-04-30T19:48:35.659Z,100969.18
2018-04-30T19:51:38.915Z,100969.64
2018-04-30T19:54:42.312Z,100977.15
2018-04-30T19:57:45.692Z,100991.27
2018-04-30T20:00:48.908Z,100987.07
2018-04-30T20:03:52.271Z,100983.04
2018-04-30T20:06:55.638Z,100987.26
2018-04-30T20:09:58.987Z,100979.99
2018-04-30T20:13:04.335Z,100973.13
2018-04-30T20:16:09.113Z,100981.94
2018-04-30T20:19:12.644Z,100991.50
2018-04-30T20:22:16.656Z,100995.03
2018-04-30T20:25:20.261Z,101003.50
2018-04-30T20:28:23.841Z,101003.13
2018-04-30T20:31:27.719Z,101002.45
2018-04-30T20:34:31.279Z,101000.64
2018-04-30T20:37:35.376Z,101008.12
2018-04-30T20:40:38.724Z,101005.81
2018-04-30T20:43:42.789Z,101011.53
2018-04-30T20:46:46.080Z,101004.32
2018-04-30T20:49:49.515Z,101004.47
2018-04-30T20:52:52.766Z,101011.43
2018-04-30T20:55:56.017Z,101007.46
2018-04-30T20:58:59.298Z,101019.47
2018-04-30T21:02:02.600Z,101025.65
2018-04-30T21:05:05.912Z,101028.99
2018-04-30T21:08:09.230Z,101026.39
2018-04-30T21:11:12.689Z,101031.97
2018-04-30T21:14:15.934Z,101032.91
2018-04-30T21:17:19.997Z,101033.66
2018-04-30T21:20:23.275Z,101026.55
2018-04-30T21:23:27.640Z,101030.71
2018-04-30T21:26:31.087Z,101029.14
2018-04-30T21:29:35.475Z,101038.47
2018-04-30T21:32:40.139Z,101043.50
2018-04-30T21:35:44.411Z,101046.63
2018-04-30T21:38:47.724Z,101051.23
2018-04-30T21:41:51.734Z,101048.19
2018-04-30T21:44:55.025Z,101044.71
2018-04-30T21:47:58.277Z,101046.86
2018-04-30T21:51:01.427Z,101049.14
2018-04-30T21:54:04.708Z,101056.39
2018-04-30T21:57:08.086Z,101063.04
2018-04-30T22:00:11.414Z,101069.17
2018-04-30T22:03:14.629Z,101074.34
2018-04-30T22:06:17.977Z,101078.08
2018-04-30T22:09:22.046Z,101076.57
2018-04-30T22:12:25.378Z,101083.87
2018-04-30T22:15:28.710Z,101081.64
2018-04-30T22:18:32.252Z,101078.26
2018-04-30T22:21:35.595Z,101075.36
2018-04-30T22:24:38.911Z,101079.10
2018-04-30T22:27:43.009Z,101084.98
2018-04-30T22:30:46.738Z,101093.68
2018-04-30T22:33:51.918Z,101105.45
2018-04-30T22:36:56.136Z,101117.64
2018-04-30T22:39:59.448Z,101120.01
2018-04-30T22:43:03.597Z,101127.06
2018-04-30T22:46:06.929Z,101123.74
2018-04-30T22:49:10.159Z,101123.57
2018-04-30T22:52:13.300Z,101125.41
2018-04-30T22:55:17.271Z,101135.38
2018-04-30T22:58:21.380Z,101136.59
2018-04-30T23:01:24.811Z,101142.53
2018-04-30T23:04:28.528Z,101138.07
2018-04-30T23:07:32.960Z,101138.67
2018-04-30T23:10:37.936Z,101143.47
2018-04-30T23:13:41.240Z,101149.55
2018-04-30T23:16:46.656Z,101145.79
2018-04-30T23:19:51.209Z,101151.54
2018-04-30T23:22:54.597Z,101156.15
2018-04-30T23:25:57.873Z,101154.22
2018-04-30T23:29:01.160Z,101161.30
2018-04-30T23:32:04.883Z,101159.70
2018-04-30T23:35:08.172Z,101165.95
2018-04-30T23:38:11.472Z,101169.82
2018-04-30T23:41:14.775Z,101166.85
2018-04-30T23:44:18.229Z,101159.62
2018-04-30T23:47:22.348Z,101162.55
2018-04-30T23:50:53.671Z,101170.70
2018-04-30T23:53:57.173Z,101174.05
2018-04-30T23:57:00.444Z,101175.10
